sensor_id;sensor_type;location;lat;lon;timestamp;P1;durP1;ratioP1;P2;durP2;ratioP2
4023;SDS011;2026;51.002;13.668;2023-07-28T00:01:52;1.03;;;0.93;;
4023;SDS011;2026;51.002;13.668;2023-07-28T00:06:57;2.63;;;1.07;;
4023;SDS011;2026;51.002;13.668;2023-07-28T00:12:00;2.00;;;1.13;;
4023;SDS011;2026;51.002;13.668;2023-07-28T00:17:03;2.00;;;1.10;;
4023;SDS011;2026;51.002;13.668;2023-07-28T00:22:08;1.53;;;1.43;;
4023;SDS011;2026;51.002;13.668;2023-07-28T00:27:11;1.40;;;1.30;;
4023;SDS011;2026;51.002;13.668;2023-07-28T00:32:18;1.87;;;1.17;;
4023;SDS011;2026;51.002;13.668;2023-07-28T00:37:23;2.40;;;1.37;;
4023;SDS011;2026;51.002;13.668;2023-07-28T00:42:26;1.60;;;1.50;;
4023;SDS011;2026;51.002;13.668;2023-07-28T00:47:29;3.63;;;1.67;;
4023;SDS011;2026;51.002;13.668;2023-07-28T00:52:33;1.73;;;1.50;;
4023;SDS011;2026;51.002;13.668;2023-07-28T00:57:37;1.75;;;1.65;;
4023;SDS011;2026;51.002;13.668;2023-07-28T01:02:41;2.33;;;1.53;;
4023;SDS011;2026;51.002;13.668;2023-07-28T01:07:46;3.05;;;1.80;;
4023;SDS011;2026;51.002;13.668;2023-07-28T01:12:55;1.70;;;1.60;;
4023;SDS011;2026;51.002;13.668;2023-07-28T01:17:58;2.90;;;1.70;;
4023;SDS011;2026;51.002;13.668;2023-07-28T01:23:08;2.83;;;2.07;;
4023;SDS011;2026;51.002;13.668;2023-07-28T01:28:15;2.10;;;1.80;;
4023;SDS011;2026;51.002;13.668;2023-07-28T01:33:19;2.00;;;1.77;;
4023;SDS011;2026;51.002;13.668;2023-07-28T01:38:22;6.73;;;2.20;;
4023;SDS011;2026;51.002;13.668;2023-07-28T01:43:26;3.03;;;1.87;;
4023;SDS011;2026;51.002;13.668;2023-07-28T01:48:29;2.00;;;1.80;;
4023;SDS011;2026;51.002;13.668;2023-07-28T01:53:33;3.20;;;2.23;;
4023;SDS011;2026;51.002;13.668;2023-07-28T01:58:37;3.67;;;2.13;;
4023;SDS011;2026;51.002;13.668;2023-07-28T02:03:40;4.50;;;2.40;;
4023;SDS011;2026;51.002;13.668;2023-07-28T02:08:43;3.00;;;1.97;;
4023;SDS011;2026;51.002;13.668;2023-07-28T02:13:48;2.55;;;2.00;;
4023;SDS011;2026;51.002;13.668;2023-07-28T02:18:52;1.97;;;1.73;;
4023;SDS011;2026;51.002;13.668;2023-07-28T02:23:55;1.80;;;1.70;;
4023;SDS011;2026;51.002;13.668;2023-07-28T02:28:59;1.80;;;1.70;;
4023;SDS011;2026;51.002;13.668;2023-07-28T02:34:02;1.60;;;1.50;;
4023;SDS011;2026;51.002;13.668;2023-07-28T02:39:05;1.70;;;1.60;;
4023;SDS011;2026;51.002;13.668;2023-07-28T02:44:10;1.60;;;1.42;;
4023;SDS011;2026;51.002;13.668;2023-07-28T02:49:13;2.90;;;1.60;;
4023;SDS011;2026;51.002;13.668;2023-07-28T02:54:16;1.53;;;1.37;;
4023;SDS011;2026;51.002;13.668;2023-07-28T02:59:21;3.53;;;1.87;;
4023;SDS011;2026;51.002;13.668;2023-07-28T03:04:24;1.67;;;1.58;;
4023;SDS011;2026;51.002;13.668;2023-07-28T03:09:48;1.73;;;1.60;;
4023;SDS011;2026;51.002;13.668;2023-07-28T03:14:52;1.87;;;1.43;;
4023;SDS011;2026;51.002;13.668;2023-07-28T03:19:55;1.70;;;1.60;;
4023;SDS011;2026;51.002;13.668;2023-07-28T03:24:58;1.60;;;1.50;;
4023;SDS011;2026;51.002;13.668;2023-07-28T03:30:03;1.60;;;1.43;;
4023;SDS011;2026;51.002;13.668;2023-07-28T03:35:08;1.50;;;1.40;;
4023;SDS011;2026;51.002;13.668;2023-07-28T03:40:17;1.40;;;1.20;;
4023;SDS011;2026;51.002;13.668;2023-07-28T03:45:26;1.60;;;1.27;;
4023;SDS011;2026;51.002;13.668;2023-07-28T03:50:29;1.60;;;1.40;;
4023;SDS011;2026;51.002;13.668;2023-07-28T03:55:32;1.43;;;1.20;;
4023;SDS011;2026;51.002;13.668;2023-07-28T04:00:36;2.90;;;1.50;;
4023;SDS011;2026;51.002;13.668;2023-07-28T04:05:39;1.23;;;1.10;;
4023;SDS011;2026;51.002;13.668;2023-07-28T04:10:43;1.48;;;1.30;;
4023;SDS011;2026;51.002;13.668;2023-07-28T04:15:47;2.53;;;1.30;;
4023;SDS011;2026;51.002;13.668;2023-07-28T04:20:50;2.13;;;1.30;;
4023;SDS011;2026;51.002;13.668;2023-07-28T04:25:54;2.50;;;1.40;;
4023;SDS011;2026;51.002;13.668;2023-07-28T04:31:00;3.07;;;1.27;;
4023;SDS011;2026;51.002;13.668;2023-07-28T04:36:21;2.07;;;1.20;;
4023;SDS011;2026;51.002;13.668;2023-07-28T04:41:24;2.10;;;1.33;;
4023;SDS011;2026;51.002;13.668;2023-07-28T04:46:29;9.10;;;2.40;;
4023;SDS011;2026;51.002;13.668;2023-07-28T04:51:40;1.73;;;1.47;;
4023;SDS011;2026;51.002;13.668;2023-07-28T04:57:09;4.50;;;2.10;;
4023;SDS011;2026;51.002;13.668;2023-07-28T05:02:18;1.58;;;1.48;;
4023;SDS011;2026;51.002;13.668;2023-07-28T05:07:21;1.40;;;1.30;;
4023;SDS011;2026;51.002;13.668;2023-07-28T05:12:24;2.70;;;1.47;;
4023;SDS011;2026;51.002;13.668;2023-07-28T05:17:29;1.40;;;1.30;;
4023;SDS011;2026;51.002;13.668;2023-07-28T05:22:55;2.07;;;1.40;;
4023;SDS011;2026;51.002;13.668;2023-07-28T05:28:02;2.03;;;1.37;;
4023;SDS011;2026;51.002;13.668;2023-07-28T05:33:09;1.53;;;1.30;;
4023;SDS011;2026;51.002;13.668;2023-07-28T05:38:21;2.13;;;1.67;;
4023;SDS011;2026;51.002;13.668;2023-07-28T05:43:24;1.40;;;1.30;;
4023;SDS011;2026;51.002;13.668;2023-07-28T05:48:30;1.27;;;1.10;;
4023;SDS011;2026;51.002;13.668;2023-07-28T05:53:34;1.70;;;1.33;;
4023;SDS011;2026;51.002;13.668;2023-07-28T05:58:40;2.13;;;1.40;;
4023;SDS011;2026;51.002;13.668;2023-07-28T06:03:44;2.47;;;1.33;;
4023;SDS011;2026;51.002;13.668;2023-07-28T06:08:55;1.20;;;1.10;;
4023;SDS011;2026;51.002;13.668;2023-07-28T06:13:58;1.30;;;1.20;;
4023;SDS011;2026;51.002;13.668;2023-07-28T06:19:02;1.50;;;1.40;;
4023;SDS011;2026;51.002;13.668;2023-07-28T06:24:08;4.20;;;1.20;;
4023;SDS011;2026;51.002;13.668;2023-07-28T06:29:11;2.80;;;1.30;;
4023;SDS011;2026;51.002;13.668;2023-07-28T06:34:15;2.80;;;1.30;;
4023;SDS011;2026;51.002;13.668;2023-07-28T06:39:19;1.20;;;1.00;;
4023;SDS011;2026;51.002;13.668;2023-07-28T06:44:22;1.20;;;1.10;;
4023;SDS011;2026;51.002;13.668;2023-07-28T06:49:26;1.30;;;1.10;;
4023;SDS011;2026;51.002;13.668;2023-07-28T06:54:29;2.00;;;0.90;;
4023;SDS011;2026;51.002;13.668;2023-07-28T06:59:33;1.10;;;0.90;;
4023;SDS011;2026;51.002;13.668;2023-07-28T07:04:37;1.17;;;0.98;;
4023;SDS011;2026;51.002;13.668;2023-07-28T07:09:41;0.80;;;0.80;;
4023;SDS011;2026;51.002;13.668;2023-07-28T07:14:44;0.80;;;0.80;;
4023;SDS011;2026;51.002;13.668;2023-07-28T07:19:48;2.23;;;0.80;;
4023;SDS011;2026;51.002;13.668;2023-07-28T07:24:51;0.90;;;0.80;;
4023;SDS011;2026;51.002;13.668;2023-07-28T07:29:54;1.10;;;1.00;;
4023;SDS011;2026;51.002;13.668;2023-07-28T07:34:58;0.70;;;0.70;;
4023;SDS011;2026;51.002;13.668;2023-07-28T07:40:02;2.70;;;0.90;;
4023;SDS011;2026;51.002;13.668;2023-07-28T07:45:06;0.70;;;0.70;;
4023;SDS011;2026;51.002;13.668;2023-07-28T07:50:11;1.30;;;1.00;;
4023;SDS011;2026;51.002;13.668;2023-07-28T07:55:15;1.87;;;1.00;;
4023;SDS011;2026;51.002;13.668;2023-07-28T08:00:18;0.90;;;0.83;;
4023;SDS011;2026;51.002;13.668;2023-07-28T08:05:23;1.10;;;0.80;;
4023;SDS011;2026;51.002;13.668;2023-07-28T08:10:26;0.80;;;0.80;;
4023;SDS011;2026;51.002;13.668;2023-07-28T08:15:29;1.73;;;0.90;;
4023;SDS011;2026;51.002;13.668;2023-07-28T08:20:33;2.50;;;1.13;;
4023;SDS011;2026;51.002;13.668;2023-07-28T08:25:36;1.07;;;0.97;;
4023;SDS011;2026;51.002;13.668;2023-07-28T08:30:39;1.23;;;1.00;;
4023;SDS011;2026;51.002;13.668;2023-07-28T08:35:44;1.38;;;1.00;;
4023;SDS011;2026;51.002;13.668;2023-07-28T08:40:47;0.90;;;0.87;;
4023;SDS011;2026;51.002;13.668;2023-07-28T08:45:50;1.10;;;1.00;;
4023;SDS011;2026;51.002;13.668;2023-07-28T08:50:57;1.20;;;1.00;;
4023;SDS011;2026;51.002;13.668;2023-07-28T08:56:00;1.10;;;1.00;;
4023;SDS011;2026;51.002;13.668;2023-07-28T09:01:07;1.37;;;0.80;;
4023;SDS011;2026;51.002;13.668;2023-07-28T09:06:12;1.17;;;1.07;;
4023;SDS011;2026;51.002;13.668;2023-07-28T09:11:15;2.10;;;1.00;;
4023;SDS011;2026;51.002;13.668;2023-07-28T09:16:20;1.27;;;0.80;;
4023;SDS011;2026;51.002;13.668;2023-07-28T09:21:25;1.00;;;1.00;;
4023;SDS011;2026;51.002;13.668;2023-07-28T09:26:36;4.53;;;1.00;;
4023;SDS011;2026;51.002;13.668;2023-07-28T09:31:39;2.50;;;1.40;;
4023;SDS011;2026;51.002;13.668;2023-07-28T09:36:44;2.60;;;1.63;;
4023;SDS011;2026;51.002;13.668;2023-07-28T09:41:47;1.17;;;1.00;;
4023;SDS011;2026;51.002;13.668;2023-07-28T09:46:50;0.98;;;0.88;;
4023;SDS011;2026;51.002;13.668;2023-07-28T09:51:58;1.80;;;0.90;;
4023;SDS011;2026;51.002;13.668;2023-07-28T09:57:06;0.90;;;0.90;;
4023;SDS011;2026;51.002;13.668;2023-07-28T10:02:13;1.10;;;0.90;;
4023;SDS011;2026;51.002;13.668;2023-07-28T10:07:18;0.80;;;0.80;;
4023;SDS011;2026;51.002;13.668;2023-07-28T10:12:23;1.20;;;0.83;;
4023;SDS011;2026;51.002;13.668;2023-07-28T10:17:30;0.88;;;0.88;;
4023;SDS011;2026;51.002;13.668;2023-07-28T10:22:44;3.43;;;1.00;;
4023;SDS011;2026;51.002;13.668;2023-07-28T10:27:47;1.00;;;0.90;;
4023;SDS011;2026;51.002;13.668;2023-07-28T10:32:53;0.80;;;0.80;;
4023;SDS011;2026;51.002;13.668;2023-07-28T10:38:02;1.40;;;1.30;;
4023;SDS011;2026;51.002;13.668;2023-07-28T10:43:36;0.88;;;0.85;;
4023;SDS011;2026;51.002;13.668;2023-07-28T10:48:43;1.10;;;1.00;;
4023;SDS011;2026;51.002;13.668;2023-07-28T10:53:50;2.83;;;0.95;;
4023;SDS011;2026;51.002;13.668;2023-07-28T10:58:57;0.90;;;0.90;;
4023;SDS011;2026;51.002;13.668;2023-07-28T11:04:09;1.42;;;0.85;;
4023;SDS011;2026;51.002;13.668;2023-07-28T11:09:16;0.98;;;0.85;;
4023;SDS011;2026;51.002;13.668;2023-07-28T11:14:21;0.82;;;0.80;;
4023;SDS011;2026;51.002;13.668;2023-07-28T11:19:24;1.10;;;1.00;;
4023;SDS011;2026;51.002;13.668;2023-07-28T11:24:29;0.93;;;0.83;;
4023;SDS011;2026;51.002;13.668;2023-07-28T11:29:32;1.45;;;1.10;;
4023;SDS011;2026;51.002;13.668;2023-07-28T11:34:35;1.55;;;1.10;;
4023;SDS011;2026;51.002;13.668;2023-07-28T11:39:40;0.88;;;0.88;;
4023;SDS011;2026;51.002;13.668;2023-07-28T11:44:43;1.30;;;0.82;;
4023;SDS011;2026;51.002;13.668;2023-07-28T11:49:47;1.35;;;1.00;;
4023;SDS011;2026;51.002;13.668;2023-07-28T11:54:52;6.68;;;2.08;;
4023;SDS011;2026;51.002;13.668;2023-07-28T11:59:55;1.73;;;0.93;;
4023;SDS011;2026;51.002;13.668;2023-07-28T12:04:58;2.55;;;0.80;;
4023;SDS011;2026;51.002;13.668;2023-07-28T12:10:07;1.23;;;1.05;;
4023;SDS011;2026;51.002;13.668;2023-07-28T12:15:18;0.90;;;0.90;;
4023;SDS011;2026;51.002;13.668;2023-07-28T12:20:34;1.30;;;1.20;;
4023;SDS011;2026;51.002;13.668;2023-07-28T12:25:41;1.75;;;1.08;;
4023;SDS011;2026;51.002;13.668;2023-07-28T12:30:45;1.10;;;1.00;;
4023;SDS011;2026;51.002;13.668;2023-07-28T12:35:51;0.90;;;0.90;;
4023;SDS011;2026;51.002;13.668;2023-07-28T12:40:55;1.85;;;1.10;;
4023;SDS011;2026;51.002;13.668;2023-07-28T12:46:01;1.30;;;1.17;;
4023;SDS011;2026;51.002;13.668;2023-07-28T12:51:07;3.75;;;1.08;;
4023;SDS011;2026;51.002;13.668;2023-07-28T12:56:11;1.52;;;1.10;;
4023;SDS011;2026;51.002;13.668;2023-07-28T13:01:36;1.20;;;1.10;;
4023;SDS011;2026;51.002;13.668;2023-07-28T13:06:40;1.33;;;1.23;;
4023;SDS011;2026;51.002;13.668;2023-07-28T13:11:44;1.33;;;0.93;;
4023;SDS011;2026;51.002;13.668;2023-07-28T13:16:50;2.50;;;1.40;;
4023;SDS011;2026;51.002;13.668;2023-07-28T13:21:54;2.40;;;1.23;;
4023;SDS011;2026;51.002;13.668;2023-07-28T13:26:58;2.22;;;1.15;;
4023;SDS011;2026;51.002;13.668;2023-07-28T13:32:01;4.57;;;1.27;;
4023;SDS011;2026;51.002;13.668;2023-07-28T13:37:04;1.95;;;1.20;;
4023;SDS011;2026;51.002;13.668;2023-07-28T13:42:09;1.75;;;1.20;;
4023;SDS011;2026;51.002;13.668;2023-07-28T13:47:13;2.00;;;1.00;;
4023;SDS011;2026;51.002;13.668;2023-07-28T13:52:16;1.85;;;1.00;;
4023;SDS011;2026;51.002;13.668;2023-07-28T13:57:24;1.42;;;1.10;;
4023;SDS011;2026;51.002;13.668;2023-07-28T14:02:27;1.17;;;1.07;;
4023;SDS011;2026;51.002;13.668;2023-07-28T14:07:30;1.20;;;1.10;;
4023;SDS011;2026;51.002;13.668;2023-07-28T14:15:06;1.55;;;1.45;;
4023;SDS011;2026;51.002;13.668;2023-07-28T14:20:10;1.33;;;1.23;;
4023;SDS011;2026;51.002;13.668;2023-07-28T14:25:13;1.67;;;1.20;;
4023;SDS011;2026;51.002;13.668;2023-07-28T14:30:17;1.65;;;1.23;;
4023;SDS011;2026;51.002;13.668;2023-07-28T14:35:20;1.98;;;1.10;;
4023;SDS011;2026;51.002;13.668;2023-07-28T14:44:13;1.10;;;1.00;;
4023;SDS011;2026;51.002;13.668;2023-07-28T14:49:18;1.38;;;1.10;;
4023;SDS011;2026;51.002;13.668;2023-07-28T14:54:21;1.20;;;1.10;;
4023;SDS011;2026;51.002;13.668;2023-07-28T14:59:26;1.30;;;1.20;;
4023;SDS011;2026;51.002;13.668;2023-07-28T15:04:29;1.10;;;1.00;;
4023;SDS011;2026;51.002;13.668;2023-07-28T15:09:32;1.25;;;1.15;;
4023;SDS011;2026;51.002;13.668;2023-07-28T15:14:36;1.60;;;1.40;;
4023;SDS011;2026;51.002;13.668;2023-07-28T15:19:39;1.10;;;1.00;;
4023;SDS011;2026;51.002;13.668;2023-07-28T15:24:42;1.67;;;1.00;;
4023;SDS011;2026;51.002;13.668;2023-07-28T15:29:46;1.50;;;1.33;;
4023;SDS011;2026;51.002;13.668;2023-07-28T15:34:49;2.17;;;1.58;;
4023;SDS011;2026;51.002;13.668;2023-07-28T15:39:52;1.40;;;1.30;;
4023;SDS011;2026;51.002;13.668;2023-07-28T15:44:57;2.28;;;1.10;;
4023;SDS011;2026;51.002;13.668;2023-07-28T15:50:00;1.35;;;1.23;;
4023;SDS011;2026;51.002;13.668;2023-07-28T15:55:03;1.50;;;1.40;;
4023;SDS011;2026;51.002;13.668;2023-07-28T16:00:09;1.75;;;1.48;;
4023;SDS011;2026;51.002;13.668;2023-07-28T16:05:15;2.17;;;1.77;;
4023;SDS011;2026;51.002;13.668;2023-07-28T16:10:18;1.20;;;1.10;;
4023;SDS011;2026;51.002;13.668;2023-07-28T16:15:23;1.63;;;0.90;;
4023;SDS011;2026;51.002;13.668;2023-07-28T16:20:28;1.77;;;1.50;;
4023;SDS011;2026;51.002;13.668;2023-07-28T16:25:31;2.45;;;1.17;;
4023;SDS011;2026;51.002;13.668;2023-07-28T16:30:35;1.58;;;1.48;;
4023;SDS011;2026;51.002;13.668;2023-07-28T16:35:38;1.45;;;1.20;;
4023;SDS011;2026;51.002;13.668;2023-07-28T16:40:41;1.67;;;1.10;;
4023;SDS011;2026;51.002;13.668;2023-07-28T16:45:45;1.83;;;1.08;;
4023;SDS011;2026;51.002;13.668;2023-07-28T16:50:49;2.05;;;1.20;;
4023;SDS011;2026;51.002;13.668;2023-07-28T16:55:52;1.30;;;1.10;;
4023;SDS011;2026;51.002;13.668;2023-07-28T17:00:56;1.38;;;1.27;;
4023;SDS011;2026;51.002;13.668;2023-07-28T17:05:59;1.48;;;1.00;;
4023;SDS011;2026;51.002;13.668;2023-07-28T17:11:04;1.92;;;1.30;;
4023;SDS011;2026;51.002;13.668;2023-07-28T17:16:08;1.40;;;1.30;;
4023;SDS011;2026;51.002;13.668;2023-07-28T17:21:11;2.25;;;1.15;;
4023;SDS011;2026;51.002;13.668;2023-07-28T17:26:14;1.35;;;1.17;;
4023;SDS011;2026;51.002;13.668;2023-07-28T17:31:19;1.20;;;1.10;;
4023;SDS011;2026;51.002;13.668;2023-07-28T17:36:22;2.05;;;1.20;;
4023;SDS011;2026;51.002;13.668;2023-07-28T17:41:25;1.50;;;1.40;;
4023;SDS011;2026;51.002;13.668;2023-07-28T17:46:30;1.40;;;1.30;;
4023;SDS011;2026;51.002;13.668;2023-07-28T17:51:33;1.75;;;1.10;;
4023;SDS011;2026;51.002;13.668;2023-07-28T17:56:36;1.40;;;1.30;;
4023;SDS011;2026;51.002;13.668;2023-07-28T18:01:41;1.15;;;1.10;;
4023;SDS011;2026;51.002;13.668;2023-07-28T18:06:44;1.48;;;1.23;;
4023;SDS011;2026;51.002;13.668;2023-07-28T18:11:47;2.22;;;1.20;;
4023;SDS011;2026;51.002;13.668;2023-07-28T18:16:51;1.10;;;1.00;;
4023;SDS011;2026;51.002;13.668;2023-07-28T18:21:55;3.95;;;1.33;;
4023;SDS011;2026;51.002;13.668;2023-07-28T18:26:58;1.20;;;1.10;;
4023;SDS011;2026;51.002;13.668;2023-07-28T18:32:02;1.70;;;1.50;;
4023;SDS011;2026;51.002;13.668;2023-07-28T18:37:06;1.27;;;1.17;;
4023;SDS011;2026;51.002;13.668;2023-07-28T18:42:10;3.05;;;1.40;;
4023;SDS011;2026;51.002;13.668;2023-07-28T18:47:14;1.30;;;1.20;;
4023;SDS011;2026;51.002;13.668;2023-07-28T18:52:17;1.77;;;1.50;;
4023;SDS011;2026;51.002;13.668;2023-07-28T18:57:20;2.10;;;1.55;;
4023;SDS011;2026;51.002;13.668;2023-07-28T19:06:51;1.63;;;1.50;;
4023;SDS011;2026;51.002;13.668;2023-07-28T19:11:54;2.35;;;1.60;;
4023;SDS011;2026;51.002;13.668;2023-07-28T19:16:57;1.88;;;1.40;;
4023;SDS011;2026;51.002;13.668;2023-07-28T19:22:01;2.53;;;1.40;;
4023;SDS011;2026;51.002;13.668;2023-07-28T19:27:07;1.30;;;1.20;;
4023;SDS011;2026;51.002;13.668;2023-07-28T19:32:10;1.30;;;1.20;;
4023;SDS011;2026;51.002;13.668;2023-07-28T19:37:14;1.47;;;1.37;;
4023;SDS011;2026;51.002;13.668;2023-07-28T19:42:20;1.30;;;1.20;;
4023;SDS011;2026;51.002;13.668;2023-07-28T19:47:23;2.30;;;2.10;;
4023;SDS011;2026;51.002;13.668;2023-07-28T19:52:27;1.60;;;1.40;;
4023;SDS011;2026;51.002;13.668;2023-07-28T19:57:30;1.80;;;1.70;;
4023;SDS011;2026;51.002;13.668;2023-07-28T20:02:33;3.00;;;1.80;;
4023;SDS011;2026;51.002;13.668;2023-07-28T20:07:38;1.87;;;1.67;;
4023;SDS011;2026;51.002;13.668;2023-07-28T20:12:40;2.43;;;1.80;;
4023;SDS011;2026;51.002;13.668;2023-07-28T20:17:43;2.70;;;1.90;;
4023;SDS011;2026;51.002;13.668;2023-07-28T20:22:49;2.80;;;1.63;;
4023;SDS011;2026;51.002;13.668;2023-07-28T20:27:58;2.03;;;1.90;;
4023;SDS011;2026;51.002;13.668;2023-07-28T20:33:01;2.17;;;1.67;;
4023;SDS011;2026;51.002;13.668;2023-07-28T20:38:06;2.00;;;1.90;;
4023;SDS011;2026;51.002;13.668;2023-07-28T20:43:09;2.60;;;2.33;;
4023;SDS011;2026;51.002;13.668;2023-07-28T20:48:12;2.93;;;1.73;;
4023;SDS011;2026;51.002;13.668;2023-07-28T20:53:16;2.20;;;2.00;;
4023;SDS011;2026;51.002;13.668;2023-07-28T20:58:22;2.60;;;2.00;;
4023;SDS011;2026;51.002;13.668;2023-07-28T21:03:26;1.90;;;1.70;;
4023;SDS011;2026;51.002;13.668;2023-07-28T21:08:31;2.33;;;2.10;;
4023;SDS011;2026;51.002;13.668;2023-07-28T21:13:34;2.27;;;2.00;;
4023;SDS011;2026;51.002;13.668;2023-07-28T21:18:37;1.77;;;1.67;;
4023;SDS011;2026;51.002;13.668;2023-07-28T21:23:41;3.40;;;2.27;;
4023;SDS011;2026;51.002;13.668;2023-07-28T21:28:45;5.07;;;2.00;;
4023;SDS011;2026;51.002;13.668;2023-07-28T21:33:48;4.63;;;2.00;;
4023;SDS011;2026;51.002;13.668;2023-07-28T21:38:53;2.10;;;2.00;;
4023;SDS011;2026;51.002;13.668;2023-07-28T21:43:56;4.87;;;2.40;;
4023;SDS011;2026;51.002;13.668;2023-07-28T21:48:59;3.47;;;2.37;;
4023;SDS011;2026;51.002;13.668;2023-07-28T21:54:04;2.23;;;2.03;;
4023;SDS011;2026;51.002;13.668;2023-07-28T21:59:07;2.03;;;1.93;;
4023;SDS011;2026;51.002;13.668;2023-07-28T22:04:11;2.37;;;2.17;;
4023;SDS011;2026;51.002;13.668;2023-07-28T22:09:15;2.13;;;1.93;;
4023;SDS011;2026;51.002;13.668;2023-07-28T22:14:18;2.70;;;2.00;;
4023;SDS011;2026;51.002;13.668;2023-07-28T22:19:22;3.17;;;2.83;;
4023;SDS011;2026;51.002;13.668;2023-07-28T22:24:26;2.50;;;2.30;;
4023;SDS011;2026;51.002;13.668;2023-07-28T22:29:29;2.60;;;2.10;;
4023;SDS011;2026;51.002;13.668;2023-07-28T22:34:32;5.37;;;2.27;;
4023;SDS011;2026;51.002;13.668;2023-07-28T22:39:36;2.77;;;2.57;;
4023;SDS011;2026;51.002;13.668;2023-07-28T22:44:39;4.47;;;2.33;;
4023;SDS011;2026;51.002;13.668;2023-07-28T22:49:42;5.30;;;2.87;;
4023;SDS011;2026;51.002;13.668;2023-07-28T22:54:46;4.30;;;2.40;;
4023;SDS011;2026;51.002;13.668;2023-07-28T22:59:56;2.30;;;2.10;;
4023;SDS011;2026;51.002;13.668;2023-07-28T23:04:59;3.43;;;2.43;;
4023;SDS011;2026;51.002;13.668;2023-07-28T23:10:04;5.37;;;2.60;;
4023;SDS011;2026;51.002;13.668;2023-07-28T23:15:08;3.43;;;2.50;;
4023;SDS011;2026;51.002;13.668;2023-07-28T23:20:11;2.80;;;2.37;;
4023;SDS011;2026;51.002;13.668;2023-07-28T23:25:15;4.53;;;2.60;;
4023;SDS011;2026;51.002;13.668;2023-07-28T23:30:18;2.70;;;2.50;;
4023;SDS011;2026;51.002;13.668;2023-07-28T23:35:21;3.00;;;2.70;;
4023;SDS011;2026;51.002;13.668;2023-07-28T23:40:26;4.90;;;2.40;;
4023;SDS011;2026;51.002;13.668;2023-07-28T23:45:28;2.60;;;2.40;;
4023;SDS011;2026;51.002;13.668;2023-07-28T23:50:31;3.50;;;2.00;;
4023;SDS011;2026;51.002;13.668;2023-07-28T23:55:36;2.83;;;2.30;;
